Time;durP1;ratioP1;P1;durP2;ratioP2;P2;SDS_P1;SDS_P2;PMS_P1;PMS_P2;Temp;Humidity;BMP_temperature;BMP_pressure;BME280_temperature;BME280_humidity;BME280_pressure;Samples;Min_cycle;Max_cycle;Signal;HPM_P1;HPM_P2
2022/12/04 00:01:24;;;;;;;64.95;24.85;;;;;;;-0.31;100.00;101814.03;5069996;28;20086;-39
2022/12/04 00:03:54;;;;;;;66.03;24.23;;;;;;;-0.33;100.00;101809.78;5057353;28;20091;-39
2022/12/04 00:06:20;;;;;;;65.40;24.02;;;;;;;-0.33;100.00;101820.34;5049740;28;20028;-38
2022/12/04 00:08:46;;;;;;;63.45;22.77;;;;;;;-0.31;100.00;101816.69;5050043;28;20035;-38
2022/12/04 00:11:14;;;;;;;66.78;24.77;;;;;;;-0.31;100.00;101815.84;5049763;28;20061;-40
2022/12/04 00:13:39;;;;;;;64.10;22.65;;;;;;;-0.30;100.00;101807.81;5052285;28;20032;-37
2022/12/04 00:16:06;;;;;;;68.30;23.67;;;;;;;-0.32;100.00;101801.72;5049551;28;20028;-39
2022/12/04 00:18:32;;;;;;;62.92;23.60;;;;;;;-0.34;100.00;101801.00;5063938;28;20105;-37
2022/12/04 00:20:57;;;;;;;68.13;24.48;;;;;;;-0.32;100.00;101799.09;5062186;28;20032;-42
2022/12/04 00:23:22;;;;;;;60.35;22.17;;;;;;;-0.37;100.00;101798.53;5058391;28;20472;-37
2022/12/04 00:25:48;;;;;;;78.97;27.85;;;;;;;-0.40;100.00;101797.84;5049460;28;20081;-39
2022/12/04 00:28:17;;;;;;;68.22;24.25;;;;;;;-0.37;100.00;101800.31;5049050;28;20025;-38
2022/12/04 00:30:44;;;;;;;68.25;23.75;;;;;;;-0.42;100.00;101800.59;5049841;28;20041;-38
2022/12/04 00:33:10;;;;;;;65.32;24.27;;;;;;;-0.40;100.00;101803.97;5057387;28;20035;-37
2022/12/04 00:35:35;;;;;;;62.70;23.13;;;;;;;-0.40;100.00;101798.69;5069342;28;20029;-39
2022/12/04 00:38:01;;;;;;;70.78;24.55;;;;;;;-0.41;100.00;101799.63;5057753;28;20430;-37
2022/12/04 00:40:27;;;;;;;68.13;25.20;;;;;;;-0.40;100.00;101798.69;5056853;28;20040;-38
2022/12/04 00:42:52;;;;;;;63.92;23.08;;;;;;;-0.42;100.00;101805.88;5051685;28;20024;-37
2022/12/04 00:45:17;;;;;;;64.63;24.10;;;;;;;-0.42;100.00;101799.72;5060700;28;20040;-36
2022/12/04 00:47:43;;;;;;;66.18;23.83;;;;;;;-0.43;100.00;101798.88;5052473;28;20047;-39
2022/12/04 00:50:09;;;;;;;72.95;24.83;;;;;;;-0.42;100.00;101811.16;5050440;28;20535;-38
2022/12/04 00:52:34;;;;;;;65.32;23.75;;;;;;;-0.42;100.00;101803.22;5069167;28;20581;-37
2022/12/04 00:54:59;;;;;;;64.22;25.08;;;;;;;-0.44;100.00;101802.47;5070239;28;20013;-39
2022/12/04 00:57:25;;;;;;;67.57;25.20;;;;;;;-0.39;100.00;101800.41;5070267;28;20036;-36
2022/12/04 00:59:50;;;;;;;68.95;25.40;;;;;;;-0.43;100.00;101788.28;5068430;28;20028;-36
2022/12/04 01:02:15;;;;;;;70.60;24.70;;;;;;;-0.41;100.00;101796.16;5068774;28;20041;-39
2022/12/04 01:04:41;;;;;;;64.07;24.15;;;;;;;-0.37;100.00;101800.31;5054944;28;20119;-37
2022/12/04 01:07:06;;;;;;;66.60;23.85;;;;;;;-0.37;100.00;101802.94;5053104;28;20029;-38
2022/12/04 01:09:32;;;;;;;66.45;25.50;;;;;;;-0.36;100.00;101794.09;5063202;28;20035;-38
2022/12/04 01:11:57;;;;;;;64.55;23.30;;;;;;;-0.36;100.00;101796.72;5052941;28;20108;-38
2022/12/04 01:14:22;;;;;;;68.00;23.05;;;;;;;-0.34;100.00;101795.72;5057877;28;20391;-37
2022/12/04 01:16:48;;;;;;;65.93;24.10;;;;;;;-0.32;100.00;101796.44;5059863;28;20343;-41
2022/12/04 01:19:13;;;;;;;60.63;22.00;;;;;;;-0.31;100.00;101803.47;5072466;28;20035;-39
2022/12/04 01:21:39;;;;;;;67.72;24.48;;;;;;;-0.33;100.00;101794.75;5056004;28;20044;-37
2022/12/04 01:24:05;;;;;;;66.80;23.30;;;;;;;-0.34;100.00;101795.72;5064368;28;20379;-36
2022/12/04 01:26:30;;;;;;;73.32;25.83;;;;;;;-0.32;100.00;101791.16;5072441;28;20151;-39
2022/12/04 01:28:56;;;;;;;67.15;25.13;;;;;;;-0.34;100.00;101798.34;5059781;28;20120;-39
2022/12/04 01:31:21;;;;;;;76.60;26.52;;;;;;;-0.34;100.00;101793.06;5071613;28;20054;-37
2022/12/04 01:33:48;;;;;;;64.97;23.33;;;;;;;-0.35;100.00;101788.69;5059351;28;20534;-36
2022/12/04 01:36:16;;;;;;;73.78;24.73;;;;;;;-0.30;100.00;101794.56;5052392;28;20495;-39
2022/12/04 01:38:42;;;;;;;74.15;25.45;;;;;;;-0.33;100.00;101793.91;5051993;28;20471;-36
2022/12/04 01:41:10;;;;;;;74.50;25.50;;;;;;;-0.31;100.00;101787.59;5067728;28;20068;-39
2022/12/04 01:43:37;;;;;;;74.63;27.42;;;;;;;-0.34;100.00;101802.75;5072453;28;20028;-37
2022/12/04 01:46:04;;;;;;;68.00;24.52;;;;;;;-0.30;100.00;101788.44;5072077;28;20387;-37
2022/12/04 01:48:32;;;;;;;71.32;24.60;;;;;;;-0.29;100.00;101793.66;5072223;28;20027;-37
2022/12/04 01:51:02;;;;;;;68.65;25.55;;;;;;;-0.25;100.00;101800.44;5057298;28;20056;-37
2022/12/04 01:53:28;;;;;;;75.47;25.73;;;;;;;-0.26;100.00;101782.88;5051986;28;20028;-39
2022/12/04 01:55:54;;;;;;;71.88;26.85;;;;;;;-0.25;100.00;101792.50;5050847;28;20039;-39
2022/12/04 01:58:22;;;;;;;75.30;27.05;;;;;;;-0.27;100.00;101785.59;5050773;28;20396;-37
2022/12/04 02:00:51;;;;;;;68.85;26.05;;;;;;;-0.24;100.00;101778.38;5062855;28;20043;-39
2022/12/04 02:03:16;;;;;;;72.90;25.10;;;;;;;-0.25;100.00;101781.94;5053928;28;20021;-40
2022/12/04 02:05:42;;;;;;;72.00;26.02;;;;;;;-0.26;100.00;101785.53;5071757;28;20027;-39
2022/12/04 02:08:09;;;;;;;73.07;26.00;;;;;;;-0.23;100.00;101789.78;5071159;28;20020;-38
2022/12/04 02:10:44;;;;;;;71.95;25.27;;;;;;;-0.26;100.00;101790.81;5071261;28;20107;-40
2022/12/04 02:13:26;;;;;;;73.22;26.50;;;;;;;-0.26;100.00;101787.34;5064582;28;20039;-37
2022/12/04 02:16:10;;;;;;;68.18;25.80;;;;;;;-0.23;100.00;101789.78;5051649;28;20401;-37
2022/12/04 02:18:51;;;;;;;70.88;25.20;;;;;;;-0.25;100.00;101796.97;5063475;28;20252;-38
2022/12/04 02:21:32;;;;;;;67.43;22.52;;;;;;;-0.27;100.00;101789.09;5065943;28;20028;-40
2022/12/04 02:24:09;;;;;;;75.60;27.27;;;;;;;-0.26;100.00;101800.56;5057144;28;20032;-37
2022/12/04 02:26:50;;;;;;;77.57;27.70;;;;;;;-0.28;100.00;101787.41;5051771;28;20124;-41
2022/12/04 02:29:24;;;;;;;74.85;26.45;;;;;;;-0.30;100.00;101786.63;5063703;28;20324;-38
2022/12/04 02:32:14;;;;;;;75.72;26.27;;;;;;;-0.27;100.00;101789.09;5051472;28;20025;-41
2022/12/04 02:34:43;;;;;;;71.20;25.65;;;;;;;-0.29;100.00;101788.34;5053387;28;20464;-37
2022/12/04 02:37:13;;;;;;;70.55;25.80;;;;;;;-0.28;100.00;101784.75;5053719;28;20468;-36
2022/12/04 02:39:41;;;;;;;80.00;26.60;;;;;;;-0.28;100.00;101782.13;5053351;28;20040;-38
2022/12/04 02:42:14;;;;;;;80.15;27.23;;;;;;;-0.29;100.00;101780.44;5055716;28;20115;-36
2022/12/04 02:45:11;;;;;;;71.22;26.13;;;;;;;-0.25;100.00;101776.66;5050003;28;20410;-38
2022/12/04 02:47:39;;;;;;;75.25;27.13;;;;;;;-0.25;100.00;101771.34;5042415;28;20044;-37
2022/12/04 02:50:08;;;;;;;81.72;28.00;;;;;;;-0.26;100.00;101768.81;5054844;28;20059;-39
2022/12/04 02:52:37;;;;;;;70.93;26.65;;;;;;;-0.25;100.00;101771.34;5069682;28;20024;-37
2022/12/04 02:55:07;;;;;;;78.10;27.13;;;;;;;-0.18;100.00;101771.00;5069642;28;20025;-38
2022/12/04 02:57:35;;;;;;;69.03;25.42;;;;;;;-0.18;100.00;101766.56;5068989;28;20036;-36
2022/12/04 03:00:07;;;;;;;77.47;27.88;;;;;;;-0.22;100.00;101768.53;5064597;28;20025;-37
2022/12/04 03:02:53;;;;;;;77.30;26.65;;;;;;;-0.18;100.00;101763.06;5051199;28;20033;-38
2022/12/04 03:05:21;;;;;;;77.80;28.05;;;;;;;-0.16;100.00;101774.41;5049389;28;20575;-36
2022/12/04 03:07:53;;;;;;;74.45;28.25;;;;;;;-0.17;100.00;101767.41;5049419;28;20103;-36
2022/12/04 03:10:23;;;;;;;73.60;27.73;;;;;;;-0.16;100.00;101763.81;5060156;28;20021;-35
2022/12/04 03:12:55;;;;;;;82.85;30.08;;;;;;;-0.17;100.00;101756.84;5070989;28;20024;-39
2022/12/04 03:15:43;;;;;;;76.13;26.30;;;;;;;-0.17;100.00;101762.13;5068349;28;20054;-37
2022/12/04 03:18:14;;;;;;;68.35;26.55;;;;;;;-0.16;100.00;101764.66;5070718;28;20361;-37
2022/12/04 03:20:39;;;;;;;73.78;26.48;;;;;;;-0.14;100.00;101756.66;5068524;28;20123;-37
2022/12/04 03:23:11;;;;;;;77.53;27.75;;;;;;;-0.18;100.00;101763.06;5069010;28;20442;-38
2022/12/04 03:25:45;;;;;;;75.20;27.25;;;;;;;-0.17;100.00;101755.03;5068565;28;20060;-39
2022/12/04 03:28:17;;;;;;;74.93;26.98;;;;;;;-0.16;100.00;101758.53;5069106;28;20028;-38
2022/12/04 03:30:49;;;;;;;74.07;27.25;;;;;;;-0.16;100.00;101758.53;5055120;28;20120;-37
2022/12/04 03:33:17;;;;;;;77.82;27.05;;;;;;;-0.17;100.00;101765.63;5050919;28;20669;-38
2022/12/04 03:35:51;;;;;;;75.63;25.15;;;;;;;-0.20;100.00;101762.31;5048935;28;20025;-39
2022/12/04 03:38:19;;;;;;;77.38;28.15;;;;;;;-0.23;100.00;101764.19;5065460;28;20111;-38
2022/12/04 03:41:14;;;;;;;68.57;25.58;;;;;;;-0.18;100.00;101766.56;5056773;28;20064;-37
2022/12/04 03:44:06;;;;;;;74.55;28.08;;;;;;;-0.14;100.00;101759.28;5050639;28;20040;-37
2022/12/04 03:46:38;;;;;;;72.85;26.67;;;;;;;-0.14;100.00;101751.34;5050387;28;20033;-39
2022/12/04 03:49:20;;;;;;;73.80;27.67;;;;;;;-0.14;100.00;101752.19;5049443;28;20032;-39
2022/12/04 03:51:59;;;;;;;74.10;25.98;;;;;;;-0.11;100.00;101740.59;5050109;28;20447;-38
2022/12/04 03:54:31;;;;;;;74.28;27.38;;;;;;;-0.12;100.00;101738.91;5048863;28;20017;-39
2022/12/04 03:57:04;;;;;;;78.18;27.13;;;;;;;-0.13;100.00;101739.81;5050399;28;20109;-38
2022/12/04 04:00:16;;;;;;;80.28;29.02;;;;;;;-0.14;100.00;101752.19;5060393;28;20035;-37
2022/12/04 04:02:47;;;;;;;72.75;26.85;;;;;;;-0.09;100.00;101744.00;5050739;28;20094;-37
2022/12/04 04:05:14;;;;;;;74.72;27.77;;;;;;;-0.08;100.00;101748.34;5050810;28;20469;-39
2022/12/04 04:08:24;;;;;;;70.85;25.35;;;;;;;-0.07;100.00;101739.47;5049210;28;20103;-39
2022/12/04 04:10:46;;;;;;;70.25;25.92;;;;;;;-0.06;100.00;101730.59;5062446;28;20647;-39
2022/12/04 04:24:40;;;;;;;78.50;29.30;;;;;;;-0.13;100.00;101732.75;5055946;28;20090;-39
2022/12/04 04:27:05;;;;;;;74.22;27.92;;;;;;;-0.08;100.00;101732.47;5068544;28;20193;-38
2022/12/04 04:29:31;;;;;;;74.30;27.70;;;;;;;-0.09;100.00;101731.63;5069494;28;20438;-38
2022/12/04 04:32:09;;;;;;;79.40;28.00;;;;;;;-0.06;100.00;101730.59;5068662;28;20036;-37
2022/12/04 04:34:47;;;;;;;81.35;29.63;;;;;;;-0.09;100.00;101738.72;5070559;28;20032;-36
2022/12/04 04:37:22;;;;;;;77.30;26.88;;;;;;;-0.10;100.00;101737.03;5068582;28;20115;-39
2022/12/04 04:40:13;;;;;;;74.47;26.50;;;;;;;-0.03;100.00;101736.56;5071552;28;20083;-38
2022/12/04 04:43:00;;;;;;;76.68;28.17;;;;;;;-0.01;100.00;101747.03;5060563;28;20032;-39
2022/12/04 04:45:43;;;;;;;72.93;27.55;;;;;;;-0.08;100.00;101745.69;5053981;28;20031;-38
2022/12/04 04:48:14;;;;;;;76.90;28.70;;;;;;;-0.05;100.00;101742.88;5052865;28;20460;-39
2022/12/04 04:50:40;;;;;;;77.93;26.95;;;;;;;-0.03;100.00;101747.16;5064796;28;20056;-37
2022/12/04 04:53:09;;;;;;;77.78;28.55;;;;;;;-0.01;100.00;101737.31;5074255;28;20078;-39
2022/12/04 04:55:35;;;;;;;78.57;28.73;;;;;;;-0.07;100.00;101736.81;5073841;28;20025;-37
2022/12/04 04:58:12;;;;;;;79.28;28.98;;;;;;;-0.06;100.00;101743.81;5064539;28;20021;-39
2022/12/04 05:00:38;;;;;;;76.73;27.80;;;;;;;-0.03;100.00;101746.28;5066738;28;20029;-37
2022/12/04 05:03:03;;;;;;;77.50;29.10;;;;;;;-0.01;100.00;101744.38;5072341;28;20447;-40
2022/12/04 05:05:29;;;;;;;78.18;28.10;;;;;;;0.03;100.00;101759.16;5073924;28;20103;-39
2022/12/04 05:07:54;;;;;;;78.80;27.77;;;;;;;0.03;100.00;101750.34;5073791;28;20033;-39
2022/12/04 05:10:19;;;;;;;74.43;27.88;;;;;;;0.01;100.00;101745.16;5071670;28;20034;-36
2022/12/04 05:12:45;;;;;;;76.53;28.77;;;;;;;0.02;100.00;101744.22;5073035;28;20044;-39
2022/12/04 05:15:10;;;;;;;79.35;28.70;;;;;;;0.04;100.00;101754.72;5072939;28;20120;-37
2022/12/04 05:17:36;;;;;;;79.60;29.08;;;;;;;0.02;100.00;101746.84;5073379;28;20032;-37
2022/12/04 05:20:03;;;;;;;74.03;25.88;;;;;;;0.04;100.00;101752.91;5062212;28;20029;-37
2022/12/04 05:22:33;;;;;;;75.00;29.05;;;;;;;0.03;100.00;101758.28;5053434;28;20067;-39
2022/12/04 05:24:59;;;;;;;81.25;28.33;;;;;;;0.01;100.00;101760.19;5062345;28;20047;-41
2022/12/04 05:27:26;;;;;;;82.53;29.52;;;;;;;-0.01;100.00;101774.34;5073028;28;20056;-37
2022/12/04 05:29:52;;;;;;;76.22;28.00;;;;;;;-0.02;100.00;101769.16;5061285;28;20090;-40
2022/12/04 05:32:18;;;;;;;77.07;28.25;;;;;;;0.01;100.00;101768.97;5052314;28;20128;-38
2022/12/04 05:34:47;;;;;;;83.55;30.50;;;;;;;0.06;100.00;101756.31;5053638;28;20108;-37
2022/12/04 05:37:12;;;;;;;72.13;28.58;;;;;;;0.09;100.00;101757.94;5053149;28;20025;-37
2022/12/04 05:39:37;;;;;;;79.35;28.27;;;;;;;0.05;100.00;101772.28;5059170;28;20032;-37
2022/12/04 05:42:03;;;;;;;76.88;29.35;;;;;;;0.05;100.00;101765.19;5063094;28;20488;-36
2022/12/04 05:44:28;;;;;;;76.20;28.60;;;;;;;0.08;100.00;101758.88;5053846;28;20021;-39
2022/12/04 05:46:53;;;;;;;71.60;26.95;;;;;;;0.12;100.00;101755.94;5071912;28;20036;-40
2022/12/04 05:49:19;;;;;;;75.35;28.83;;;;;;;0.12;100.00;101752.47;5060255;28;20040;-37
2022/12/04 05:51:44;;;;;;;77.25;28.23;;;;;;;0.12;100.00;101752.47;5064286;28;20060;-39
2022/12/04 05:54:09;;;;;;;78.47;29.27;;;;;;;0.10;100.00;101760.47;5068823;28;20043;-37
2022/12/04 05:56:35;;;;;;;73.63;28.50;;;;;;;0.10;100.00;101765.78;5052462;28;20024;-40
2022/12/04 05:59:00;;;;;;;77.25;28.40;;;;;;;0.09;100.00;101758.78;5063162;28;20106;-39
2022/12/04 06:01:26;;;;;;;74.60;27.65;;;;;;;0.11;100.00;101751.63;5059944;28;20170;-38
2022/12/04 06:03:51;;;;;;;74.57;26.30;;;;;;;0.07;100.00;101765.13;5067559;28;20064;-38
2022/12/04 06:06:22;;;;;;;70.28;29.02;;;;;;;0.06;100.00;101769.56;5057277;28;20033;-40
2022/12/04 06:08:48;;;;;;;78.95;28.42;;;;;;;0.07;100.00;101765.97;5061814;28;20025;-36
2022/12/04 06:11:17;;;;;;;77.10;30.10;;;;;;;0.03;100.00;101768.88;5046053;28;20029;-40
2022/12/04 06:13:43;;;;;;;74.57;27.70;;;;;;;0.07;100.00;101760.66;5049933;28;20056;-38
2022/12/04 06:16:13;;;;;;;75.43;29.15;;;;;;;0.07;100.00;101765.97;5069955;28;20040;-37
2022/12/04 06:18:39;;;;;;;77.72;28.05;;;;;;;0.06;100.00;101764.25;5059887;28;20029;-40
2022/12/04 06:21:04;;;;;;;74.82;28.77;;;;;;;0.04;100.00;101758.19;5051742;28;20490;-39
2022/12/04 06:23:29;;;;;;;74.53;27.75;;;;;;;0.04;100.00;101768.78;5060974;28;20079;-37
2022/12/04 06:25:55;;;;;;;78.47;30.50;;;;;;;0.08;100.00;101770.31;5063940;28;20044;-40
2022/12/04 06:28:20;;;;;;;77.78;27.98;;;;;;;0.12;100.00;101758.59;5050915;28;20063;-39
2022/12/04 06:30:45;;;;;;;76.28;28.30;;;;;;;0.10;100.00;101760.47;5063732;28;20029;-36
2022/12/04 06:33:11;;;;;;;75.03;29.45;;;;;;;0.10;100.00;101760.47;5066740;28;20028;-38
2022/12/04 06:35:36;;;;;;;84.60;30.85;;;;;;;0.10;100.00;101759.63;5067629;28;20031;-37
2022/12/04 06:38:01;;;;;;;80.55;31.05;;;;;;;0.12;100.00;101763.88;5062541;28;20039;-37
2022/12/04 06:40:27;;;;;;;69.47;27.75;;;;;;;0.16;100.00;101760.13;5061468;28;20041;-38
2022/12/04 06:42:52;;;;;;;74.47;27.65;;;;;;;0.17;100.00;101761.81;5053415;28;20265;-37
2022/12/04 06:45:17;;;;;;;75.53;28.60;;;;;;;0.18;100.00;101757.38;5054886;28;20476;-40
2022/12/04 06:47:42;;;;;;;81.05;30.30;;;;;;;0.16;100.00;101760.13;5068073;28;20534;-38
2022/12/04 06:50:08;;;;;;;74.97;27.83;;;;;;;0.17;100.00;101760.97;5069418;28;20028;-39
2022/12/04 06:52:33;;;;;;;76.35;29.42;;;;;;;0.16;100.00;101754.00;5060867;28;20032;-40
2022/12/04 06:54:59;;;;;;;84.13;32.08;;;;;;;0.15;100.00;101757.56;5052224;28;20061;-37
2022/12/04 06:57:24;;;;;;;77.53;29.75;;;;;;;0.14;100.00;101745.28;5049308;28;20113;-39
2022/12/04 06:59:50;;;;;;;78.65;29.58;;;;;;;0.10;100.00;101749.03;5047116;28;20055;-37
2022/12/04 07:02:15;;;;;;;84.32;31.45;;;;;;;0.08;100.00;101751.81;5057307;28;20039;-38
2022/12/04 07:04:40;;;;;;;78.68;28.92;;;;;;;0.10;100.00;101749.03;5048015;28;20256;-39
2022/12/04 07:07:08;;;;;;;82.63;31.20;;;;;;;0.12;100.00;101749.81;5067663;28;20032;-39
2022/12/04 07:09:34;;;;;;;81.10;30.52;;;;;;;0.13;100.00;101760.31;5069021;28;20054;-38
2022/12/04 07:11:59;;;;;;;85.75;30.45;;;;;;;0.15;100.00;101762.84;5066123;28;20477;-37
2022/12/04 07:14:25;;;;;;;83.82;32.55;;;;;;;0.14;100.00;101762.00;5061090;28;20067;-37
2022/12/04 07:16:50;;;;;;;79.53;29.58;;;;;;;0.12;100.00;101769.19;5063711;28;20017;-37
2022/12/04 07:19:15;;;;;;;79.70;30.27;;;;;;;0.15;100.00;101769.00;5052177;28;20021;-39
2022/12/04 07:21:42;;;;;;;79.05;29.70;;;;;;;0.17;100.00;101761.81;5059397;28;20165;-39
2022/12/04 07:24:10;;;;;;;81.10;31.50;;;;;;;0.16;100.00;101762.78;5050581;28;20041;-38
2022/12/04 07:26:36;;;;;;;83.80;29.98;;;;;;;0.19;100.00;101759.09;5046957;28;20052;-39
2022/12/04 07:29:01;;;;;;;77.93;29.15;;;;;;;0.22;100.00;101765.03;5048801;28;20041;-37
2022/12/04 07:31:28;;;;;;;75.53;29.33;;;;;;;0.19;100.00;101764.38;5048326;28;20060;-39
2022/12/04 07:33:54;;;;;;;75.38;28.65;;;;;;;0.22;100.00;101765.03;5058385;28;20523;-40
2022/12/04 07:36:20;;;;;;;78.38;29.10;;;;;;;0.22;100.00;101766.84;5048426;28;20036;-37
2022/12/04 07:38:46;;;;;;;79.05;30.67;;;;;;;0.16;100.00;101759.28;5059003;28;20035;-39
2022/12/04 07:41:12;;;;;;;79.80;30.17;;;;;;;0.19;100.00;101752.00;5065192;28;20466;-38
2022/12/04 07:43:38;;;;;;;85.22;31.20;;;;;;;0.20;100.00;101750.19;5076491;28;20055;-39
2022/12/04 07:46:05;;;;;;;75.47;28.88;;;;;;;0.19;100.00;101765.22;5054289;28;20108;-39
2022/12/04 07:48:31;;;;;;;84.07;29.55;;;;;;;0.18;100.00;101758.22;5057174;28;20045;-39
2022/12/04 07:51:07;;;;;;;77.93;28.33;;;;;;;0.21;100.00;101773.94;5068625;28;20032;-38
2022/12/04 07:53:34;;;;;;;82.57;29.70;;;;;;;0.20;100.00;101771.38;5064745;28;20045;-39
2022/12/04 07:55:59;;;;;;;79.63;29.10;;;;;;;0.17;100.00;101769.75;5058830;28;20028;-37
2022/12/04 07:58:25;;;;;;;80.40;29.70;;;;;;;0.17;100.00;101776.84;5056610;28;20112;-40
2022/12/04 08:00:51;;;;;;;80.03;28.10;;;;;;;0.16;100.00;101773.38;5050612;28;20036;-38
2022/12/04 08:03:16;;;;;;;75.35;27.83;;;;;;;0.17;100.00;101772.41;5055715;28;20028;-38
2022/12/04 08:05:41;;;;;;;76.78;28.55;;;;;;;0.19;100.00;101767.03;5048058;28;20037;-37
2022/12/04 08:08:07;;;;;;;71.32;26.20;;;;;;;0.16;100.00;101778.66;5055751;28;20503;-38
2022/12/04 08:10:32;;;;;;;75.75;27.00;;;;;;;0.17;100.00;101779.50;5059432;28;20601;-38
2022/12/04 08:12:57;;;;;;;76.13;28.85;;;;;;;0.16;100.00;101781.31;5056181;28;20032;-37
2022/12/04 08:15:23;;;;;;;73.38;27.15;;;;;;;0.16;100.00;101781.31;5048409;28;20451;-37
2022/12/04 08:17:48;;;;;;;69.57;25.40;;;;;;;0.16;100.00;101783.94;5048796;28;20044;-39
2022/12/04 08:20:13;;;;;;;77.25;29.77;;;;;;;0.13;100.00;101788.56;5063938;28;20025;-37
2022/12/04 08:22:39;;;;;;;68.32;26.73;;;;;;;0.11;100.00;101793.97;5064982;28;20052;-37
2022/12/04 08:25:04;;;;;;;72.13;27.73;;;;;;;0.17;100.00;101788.28;5048430;28;20033;-39
2022/12/04 08:27:30;;;;;;;72.28;28.58;;;;;;;0.20;100.00;101789.91;5050924;28;20044;-39
2022/12/04 08:29:55;;;;;;;77.38;28.10;;;;;;;0.23;100.00;101792.38;5063512;28;20044;-38
2022/12/04 08:32:20;;;;;;;75.28;29.15;;;;;;;0.21;100.00;101791.59;5053801;28;20154;-41
2022/12/04 08:34:46;;;;;;;69.20;28.52;;;;;;;0.21;100.00;101795.13;5057392;28;20056;-38
2022/12/04 08:37:11;;;;;;;75.32;29.67;;;;;;;0.25;100.00;101801.06;5056906;28;20029;-38
2022/12/04 08:39:36;;;;;;;69.82;26.70;;;;;;;0.27;100.00;101801.84;5062642;28;20020;-37
2022/12/04 08:42:01;;;;;;;71.85;27.02;;;;;;;0.24;100.00;101798.50;5058180;28;20029;-38
2022/12/04 08:44:27;;;;;;;77.03;29.17;;;;;;;0.25;100.00;101797.59;5056841;28;20028;-38
2022/12/04 08:46:52;;;;;;;72.18;27.98;;;;;;;0.22;100.00;101807.41;5049499;28;20029;-37
2022/12/04 08:49:17;;;;;;;74.32;27.45;;;;;;;0.25;100.00;101792.28;5052368;28;20037;-39
2022/12/04 08:51:43;;;;;;;80.82;27.95;;;;;;;0.25;100.00;101816.13;5056920;28;20055;-37
2022/12/04 08:54:11;;;;;;;76.72;27.85;;;;;;;0.27;100.00;101803.66;5054537;28;20094;-37
2022/12/04 08:56:36;;;;;;;69.13;26.25;;;;;;;0.26;100.00;101818.66;5061308;28;20468;-39
2022/12/04 08:59:02;;;;;;;77.07;27.75;;;;;;;0.28;100.00;101818.56;5049896;28;20072;-40
2022/12/04 09:01:28;;;;;;;71.05;27.27;;;;;;;0.29;100.00;101822.91;5057071;28;20082;-36
2022/12/04 09:03:53;;;;;;;74.68;28.90;;;;;;;0.27;100.00;101824.81;5057915;28;20086;-36
2022/12/04 09:06:19;;;;;;;71.05;27.48;;;;;;;0.31;100.00;101815.75;5050754;28;20171;-38
2022/12/04 09:08:44;;;;;;;71.70;26.67;;;;;;;0.30;100.00;101827.28;5056369;28;20131;-38
2022/12/04 09:11:13;;;;;;;64.05;25.17;;;;;;;0.31;100.00;101821.03;5069402;28;20174;-37
2022/12/04 09:13:39;;;;;;;66.13;27.13;;;;;;;0.30;100.00;101824.63;5052976;28;20117;-36
2022/12/04 09:16:08;;;;;;;73.50;29.08;;;;;;;0.32;100.00;101828.06;5056338;28;20156;-36
2022/12/04 09:18:34;;;;;;;70.97;28.58;;;;;;;0.32;100.00;101830.69;5060435;28;20025;-38
2022/12/04 09:21:01;;;;;;;68.50;26.60;;;;;;;0.33;100.00;101830.59;5050483;28;20486;-36
2022/12/04 09:23:27;;;;;;;74.45;28.45;;;;;;;0.32;100.00;101815.66;5081858;28;20027;-37
2022/12/04 09:25:52;;;;;;;72.40;27.52;;;;;;;0.36;100.00;101813.66;5065662;28;20155;-38
2022/12/04 09:28:18;;;;;;;75.03;28.50;;;;;;;0.37;100.00;101820.66;5064210;28;20052;-37
2022/12/04 09:30:43;;;;;;;72.65;27.45;;;;;;;0.38;100.00;101814.44;5054343;28;20043;-39
2022/12/04 09:33:09;;;;;;;71.30;26.67;;;;;;;0.41;100.00;101809.78;5053589;28;20113;-39
2022/12/04 09:35:34;;;;;;;73.18;27.85;;;;;;;0.40;100.00;101813.41;5063978;28;20028;-38
2022/12/04 09:38:00;;;;;;;73.05;27.75;;;;;;;0.38;100.00;101822.38;5053134;28;20082;-39
2022/12/04 09:40:31;;;;;;;69.15;25.50;;;;;;;0.37;100.00;101816.25;5061295;28;20025;-38
2022/12/04 09:43:15;;;;;;;57.95;22.85;;;;;;;0.34;100.00;101815.53;5064546;28;20036;-37
2022/12/04 09:45:45;;;;;;;71.07;27.85;;;;;;;0.34;100.00;101819.06;5043227;28;20131;-38
2022/12/04 09:48:11;;;;;;;77.35;27.10;;;;;;;0.33;100.00;101813.84;5055667;28;20125;-39
2022/12/04 09:50:40;;;;;;;76.05;27.05;;;;;;;0.31;100.00;101810.44;5055375;28;20029;-39
2022/12/04 09:53:11;;;;;;;66.97;25.77;;;;;;;0.34;100.00;101807.59;5062117;28;20021;-39
2022/12/04 09:55:41;;;;;;;85.25;29.48;;;;;;;0.33;100.00;101821.81;5068833;28;20028;-39
2022/12/04 09:58:13;;;;;;;74.88;27.52;;;;;;;0.38;100.00;101817.09;5052122;28;20246;-38
2022/12/04 10:00:41;;;;;;;74.05;28.98;;;;;;;0.43;100.00;101815.00;5062876;28;20130;-36
2022/12/04 10:03:13;;;;;;;76.95;28.52;;;;;;;0.49;100.00;101811.97;5068104;28;20091;-39
2022/12/04 10:05:41;;;;;;;76.93;28.63;;;;;;;0.52;100.00;101817.09;5051394;28;20076;-36
2022/12/04 10:08:06;;;;;;;;;;;;;;;0.52;100.00;101814.44;5051858;28;20115;-39
2022/12/04 10:10:32;;;;;;;65.80;24.20;;;;;;;0.50;100.00;101826.94;5069514;28;20011;-36
2022/12/04 10:13:09;;;;;;;69.32;26.23;;;;;;;0.53;100.00;101816.16;5067122;28;20778;-36
2022/12/04 10:15:58;;;;;;;73.32;26.77;;;;;;;0.51;100.00;101812.75;5058167;28;20078;-40
2022/12/04 10:18:43;;;;;;;77.22;28.48;;;;;;;0.55;100.00;101819.53;5051687;28;20099;-37
2022/12/04 10:21:29;;;;;;;74.45;27.17;;;;;;;0.56;100.00;101813.31;5069667;28;20529;-36
2022/12/04 10:24:07;;;;;;;67.20;26.55;;;;;;;0.55;100.00;101814.25;5074448;28;20051;-37
2022/12/04 10:26:35;;;;;;;76.68;28.00;;;;;;;0.59;100.00;101817.59;5073008;28;20041;-40
2022/12/04 10:29:03;;;;;;;79.22;28.33;;;;;;;0.55;100.00;101814.25;5074390;28;20033;-40
2022/12/04 10:31:29;;;;;;;72.20;28.98;;;;;;;0.63;100.00;101808.50;5054728;28;20028;-39
2022/12/04 10:33:54;;;;;;;75.00;28.15;;;;;;;0.73;100.00;101816.72;5059760;28;20081;-40
2022/12/04 10:36:24;;;;;;;76.82;28.55;;;;;;;0.68;100.00;101797.63;5051730;28;20029;-38
2022/12/04 10:38:59;;;;;;;65.53;27.08;;;;;;;0.73;100.00;101791.09;5057015;28;20384;-37
2022/12/04 10:41:34;;;;;;;67.15;26.40;;;;;;;0.65;100.00;101798.66;5050907;28;20044;-38
2022/12/04 10:43:59;;;;;;;73.20;28.10;;;;;;;0.60;100.00;101795.44;5051888;28;20057;-39
2022/12/04 10:46:30;;;;;;;72.85;27.38;;;;;;;0.63;100.00;101798.78;5064129;28;20451;-40
2022/12/04 10:49:02;;;;;;;72.32;26.70;;;;;;;0.64;100.00;101800.47;5053702;28;20029;-40
2022/12/04 10:51:32;;;;;;;69.03;27.10;;;;;;;0.74;100.00;101795.44;5059312;28;20035;-38
2022/12/04 10:53:58;;;;;;;71.97;27.15;;;;;;;0.80;100.00;101786.28;5060903;28;20028;-38
2022/12/04 10:56:25;;;;;;;66.97;26.23;;;;;;;0.83;100.00;101791.38;5066909;28;20039;-39
2022/12/04 10:59:13;;;;;;;69.47;27.95;;;;;;;0.87;100.00;101790.25;5069585;28;20036;-40
2022/12/04 11:01:38;;;;;;;66.97;26.77;;;;;;;0.90;100.00;101787.41;5055446;28;20045;-39
2022/12/04 11:04:15;;;;;;;69.15;27.27;;;;;;;0.92;100.00;101793.44;5061519;28;20674;-38
2022/12/04 11:06:41;;;;;;;67.72;26.38;;;;;;;0.93;100.00;101800.44;5056016;28;20033;-40
2022/12/04 11:09:06;;;;;;;67.35;25.45;;;;;;;0.90;100.00;101790.06;5052238;28;20483;-39
2022/12/04 11:11:33;;;;;;;69.63;24.33;;;;;;;0.84;100.00;101783.34;5051348;28;20400;-37
2022/12/04 11:14:12;;;;;;;69.43;25.95;;;;;;;0.84;100.00;101778.03;5053474;28;20025;-37
2022/12/04 11:16:43;;;;;;;62.92;24.77;;;;;;;0.92;100.00;101772.22;5045377;28;20040;-37
2022/12/04 11:19:26;;;;;;;58.55;24.25;;;;;;;0.96;100.00;101771.09;5053861;28;20356;-38
2022/12/04 11:21:54;;;;;;;62.53;25.38;;;;;;;0.98;100.00;101768.38;5051120;28;20037;-39
2022/12/04 11:24:30;;;;;;;66.05;25.27;;;;;;;0.97;100.00;101770.13;5060107;28;20116;-39
2022/12/04 11:26:56;;;;;;;61.42;22.70;;;;;;;1.00;100.00;101777.94;5068234;28;20052;-38